Terminal Aerodrome Forecast
Issued by NWS Grand Forks, ND

Home | Current Version | Previous Version | Graphics & Text | Print | Product List | Glossary On
Versions: 1 2 3 4 5 6 7 8 9 10 11 12 13 14 15 16 17 18
197
FTUS43 KFGF 241139
TAFGFK
TAF
KGFK 241139Z 2412/2512 12010KT P6SM BKN005
     FM241700 15015KT P6SM OVC008
     FM242000 15015KT P6SM VCTS OVC025CB
     FM250100 15012KT P6SM VCTS OVC025CB
     FM250300 15011KT P6SM OVC020
     FM250400 16010KT P6SM BKN120=

USA.gov is the U.S. government's official web portal to all federal, state and local government web resources and services.